Rhodhiss, North Carolina
Current Conditions -  °F | °C
As of 7:53 PM on Saturday 20 Dec 2014 (Local Time) from KHKY Reporting Station
Overcast Overcast  
Wind Chill: 42°   Ceiling: 1900
Heat Index: 42°   Visibility: 10mi
Dew Point: 33°   Wind: 0mph
Humidity: 70%   Direction: NA
Pressure: 30.22"   Gusts: NA
Location:  35.77°N, 81.43°W
Report Text: KHKY 210053Z AUTO 00000KT 10SM OVC019 06/01 A3022 RMK AO2 SLP228 T00560006
Loading
Personal Weather Stations






























Interactive Weather Map New forecast layout! Learn more

10-Day Weather Forecast

Advertisements
Track Severe Weather on mobile